地図

経路データ

SID SEASON NUMBER BASIN SUBBASIN NAME ISO_TIME NATURE LAT LON WMO_WIND WMO_PRES WMO_AGENCY TRACK_TYPE DIST2LAND LANDFALL IFLAG USA_AGENCY USA_ATCF_ID USA_LAT USA_LON USA_RECORD USA_STATUS USA_WIND USA_PRES USA_SSHS USA_R34_NE USA_R34_SE USA_R34_SW USA_R34_NW USA_R50_NE USA_R50_SE USA_R50_SW USA_R50_NW USA_R64_NE USA_R64_SE USA_R64_SW USA_R64_NW USA_POCI USA_ROCI USA_RMW USA_EYE TOKYO_LAT TOKYO_LON TOKYO_GRADE TOKYO_WIND TOKYO_PRES TOKYO_R50_DIR TOKYO_R50_LONG TOKYO_R50_SHORT TOKYO_R30_DIR TOKYO_R30_LONG TOKYO_R30_SHORT TOKYO_LAND CMA_LAT CMA_LON CMA_CAT CMA_WIND CMA_PRES HKO_LAT HKO_LON HKO_CAT HKO_WIND HKO_PRES NEWDELHI_LAT NEWDELHI_LON NEWDELHI_GRADE NEWDELHI_WIND NEWDELHI_PRES NEWDELHI_CI NEWDELHI_DP NEWDELHI_POCI REUNION_LAT REUNION_LON REUNION_TYPE REUNION_WIND REUNION_PRES REUNION_TNUM REUNION_CI REUNION_RMW REUNION_R34_NE REUNION_R34_SE REUNION_R34_SW REUNION_R34_NW REUNION_R50_NE REUNION_R50_SE REUNION_R50_SW REUNION_R50_NW REUNION_R64_NE REUNION_R64_SE REUNION_R64_SW REUNION_R64_NW BOM_LAT BOM_LON BOM_TYPE BOM_WIND BOM_PRES BOM_TNUM BOM_CI BOM_RMW BOM_R34_NE BOM_R34_SE BOM_R34_SW BOM_R34_NW BOM_R50_NE BOM_R50_SE BOM_R50_SW BOM_R50_NW BOM_R64_NE BOM_R64_SE BOM_R64_SW BOM_R64_NW BOM_ROCI BOM_POCI BOM_EYE BOM_POS_METHOD BOM_PRES_METHOD NADI_LAT NADI_LON NADI_CAT NADI_WIND NADI_PRES WELLINGTON_LAT WELLINGTON_LON WELLINGTON_WIND WELLINGTON_PRES DS824_LAT DS824_LON DS824_STAGE DS824_WIND DS824_PRES TD9636_LAT TD9636_LON TD9636_STAGE TD9636_WIND TD9636_PRES TD9635_LAT TD9635_LON TD9635_WIND TD9635_PRES TD9635_ROCI NEUMANN_LAT NEUMANN_LON NEUMANN_CLASS NEUMANN_WIND NEUMANN_PRES MLC_LAT MLC_LON MLC_CLASS MLC_WIND MLC_PRES USA_GUST BOM_GUST BOM_GUST_PER REUNION_GUST REUNION_GUST_PER USA_SEAHGT USA_SEARAD_NE USA_SEARAD_SE USA_SEARAD_SW USA_SEARAD_NW STORM_SPEED STORM_DIR
1965243N19091 1965 86 NI BB NOT_NAMED 1965-08-30 18:00:00 TS 18.6000 90.9000 main 267 267 O________O____ jtwc_io IO061965 18.6000 90.9000 -1 18.6000 90.9000 TC 1 274
1965243N19091 1965 86 NI BB NOT_NAMED 1965-08-30 21:00:00 TS 18.6025 90.8676 main 267 267 P________P____ IO061965 18.6025 90.8676 -1 18.6025 90.8676 TC 2 270
1965243N19091 1965 86 NI BB NOT_NAMED 1965-08-31 00:00:00 TS 18.6000 90.7000 main 283 283 O________O____ jtwc_io IO061965 18.6000 90.7000 -1 18.6000 90.7000 TC 25 5 269
1965243N19091 1965 86 NI BB NOT_NAMED 1965-08-31 03:00:00 TS 18.5932 90.2977 main 315 315 P________PO___ IO061965 18.5923 90.2974 -1 18.5923 90.2974 TC 25 18.6000 90.3000 1 10 270
1965243N19091 1965 86 NI BB NOT_NAMED 1965-08-31 06:00:00 TS 18.6010 89.6824 main 341 307 O________OP___ jtwc_io IO061965 18.6000 89.7000 -1 18.6000 89.7000 TC 25 18.6050 89.6122 1 13 272
1965243N19091 1965 86 NI BB NOT_NAMED 1965-08-31 09:00:00 TS 18.6358 88.9554 main 307 245 P________PP___ IO061965 18.6429 88.9651 -1 18.6429 88.9651 TC 25 18.6169 88.9295 1 14 273
1965243N19091 1965 86 NI BB NOT_NAMED 1965-08-31 12:00:00 TS 18.6818 88.2190 main 238 192 O________OP___ jtwc_io IO061965 18.7000 88.2000 -1 18.7000 88.2000 TC 25 18.6454 88.2571 1 13 274
1965243N19091 1965 86 NI BB NOT_NAMED 1965-08-31 15:00:00 TS 18.7280 87.5849 main 192 148 P________PO___ IO061965 18.7421 87.5774 -1 18.7421 87.5774 TC 25 18.7000 87.6000 1 12 276
1965243N19091 1965 86 NI BB NOT_NAMED 1965-08-31 18:00:00 TS 18.7959 86.9880 main 148 116 O________OP___ jtwc_io IO061965 18.8000 87.0000 -1 18.8000 87.0000 TC 25 18.7877 86.9641 1 12 278
1965243N19091 1965 86 NI BB NOT_NAMED 1965-08-31 21:00:00 TS 18.8866 86.3717 main 116 79 P________PP___ IO061965 18.8775 86.3774 -1 18.8775 86.3774 TC 25 18.9047 86.3604 1 11 281
1965243N19091 1965 86 NI BB NOT_NAMED 1965-09-01 00:00:00 TS 19.0147 85.8005 main 79 35 O________OP___ jtwc_io IO061965 19.0000 85.8000 -1 19.0000 85.8000 TC 25 19.0442 85.8015 1 10 287
1965243N19091 1965 86 NI BB NOT_NAMED 1965-09-01 03:00:00 TS 19.1948 85.3134 main 35 0 P________PO___ IO061965 19.1923 85.3201 -1 19.1923 85.3201 TC 25 19.2000 85.3000 1 9 293
1965243N19091 1965 86 NI BB NOT_NAMED 1965-09-01 06:00:00 TS 19.3893 84.8824 main 0 0 O________OP___ jtwc_io IO061965 19.4000 84.9000 -1 19.4000 84.9000 TC 25 19.3680 84.8472 1 9 294
1965243N19091 1965 86 NI BB NOT_NAMED 1965-09-01 09:00:00 TS 19.5547 84.4691 main 0 0 P________PP___ IO061965 19.5574 84.4774 -1 19.5574 84.4774 TC 25 19.5492 84.4526 1 8 294
1965243N19091 1965 86 NI BB NOT_NAMED 1965-09-01 12:00:00 TS 19.7103 84.1022 main 0 0 O________OP___ jtwc_io IO061965 19.7000 84.1000 -1 19.7000 84.1000 TC 25 19.7308 84.1066 1 7 296
1965243N19091 1965 86 NI BB NOT_NAMED 1965-09-01 15:00:00 TS 19.8666 83.7800 main 0 0 P________PO___ IO061965 19.8499 83.7700 -1 19.8499 83.7700 TC 25 19.9000 83.8000 1 6 296
1965243N19091 1965 86 NI BB NOT_NAMED 1965-09-01 18:00:00 TS 19.9707 83.5264 main 0 0 O________OP___ jtwc_io IO061965 20.0000 83.5000 -1 20.0000 83.5000 TC 25 19.9122 83.5792 1 5 295
1965243N19091 1965 86 NI BB NOT_NAMED 1965-09-01 21:00:00 TS 20.0567 83.3425 main 0 0 P________PP___ IO061965 20.1197 83.3221 -1 20.1197 83.3221 TC 25 19.9306 83.3834 1 5 303
1965243N19091 1965 86 NI BB NOT_NAMED 1965-09-02 00:00:00 TS 20.2196 83.1154 main 0 0 O________OP___ jtwc_io IO061965 20.3000 83.1000 -1 20.3000 83.1000 TC 25 20.0587 83.1462 1 7 306
1965243N19091 1965 86 NI BB NOT_NAMED 1965-09-02 03:00:00 TS 20.4615 82.7537 main 0 0 P________PO___ IO061965 20.4923 82.7305 -1 20.4923 82.7305 TC 25 20.4000 82.8000 1 12 315
1965243N19091 1965 86 NI BB NOT_NAMED 1965-09-02 06:00:00 TS 21.0684 82.1999 main 0 0 O________OP___ jtwc_io IO061965 21.0000 82.2000 -1 21.0000 82.2000 TC 25 21.2053 82.1997 1 21 325
1965243N19091 1965 86 NI BB NOT_NAMED 1965-09-02 09:00:00 TS 22.1967 81.4647 main 0 0 P________PP___ IO061965 22.1933 81.4539 -1 22.1933 81.4539 TC 25 22.2036 81.4862 1 27 329
1965243N19091 1965 86 NI BB NOT_NAMED 1965-09-02 12:00:00 TS 23.3332 80.7176 main 0 0 O________OP___ jtwc_io IO061965 23.4000 80.7000 -1 23.4000 80.7000 TC 25 23.1997 80.7529 1 22 326
1965243N19091 1965 86 NI BB NOT_NAMED 1965-09-02 15:00:00 TS 23.9762 80.1588 main 0 0 P________PO___ IO061965 23.9644 80.1882 -1 23.9644 80.1882 TC 25 24.0000 80.1000 1 13 316
1965243N19091 1965 86 NI BB NOT_NAMED 1965-09-02 18:00:00 TS 24.2512 79.7590 main 0 0 O________OP___ jtwc_io IO061965 24.2000 79.8000 -1 24.2000 79.8000 TC 25 24.3537 79.6771 1 8 301
1965243N19091 1965 86 NI BB NOT_NAMED 1965-09-02 21:00:00 TS 24.3948 79.4076 main 0 0 P________PP___ IO061965 24.3448 79.4345 -1 24.3448 79.4345 TC 25 24.4948 79.3537 1 6 287
1965243N19091 1965 86 NI BB NOT_NAMED 1965-09-03 00:00:00 TS 24.4379 79.0929 main 0 0 O________OP___ jtwc_io IO061965 24.4000 79.1000 -1 24.4000 79.1000 TC 25 24.5136 79.0788 1 6 281
1965243N19091 1965 86 NI BB NOT_NAMED 1965-09-03 03:00:00 TS 24.5049 78.7667 main 0 0 P________PO___ IO061965 24.5074 78.7500 -1 24.5074 78.7500 TC 25 24.5000 78.8000 1 6 284
1965243N19091 1965 86 NI BB NOT_NAMED 1965-09-03 06:00:00 TS 24.5897 78.4075 main 0 0 O________OP___ jtwc_io IO061965 24.6000 78.4000 -1 24.6000 78.4000 TC 25 24.5692 78.4226 1 7 282
1965243N19091 1965 86 NI BB NOT_NAMED 1965-09-03 09:00:00 TS 24.6425 78.0446 main 0 0 P________PP___ IO061965 24.6499 78.0498 -1 24.6499 78.0498 TC 25 24.6277 78.0342 1 7 279
1965243N19091 1965 86 NI AS NOT_NAMED 1965-09-03 12:00:00 TS 24.6991 77.6846 main 0 0 O________OP___ jtwc_io IO061965 24.7000 77.7000 -1 24.7000 77.7000 TC 25 24.6974 77.6538 1 7 282
1965243N19091 1965 86 NI AS NOT_NAMED 1965-09-03 15:00:00 TS 24.7850 77.3283 main 0 0 P________PO___ IO061965 24.7775 77.3424 -1 24.7775 77.3424 TC 25 24.8000 77.3000 1 7 288
1965243N19091 1965 86 NI AS NOT_NAMED 1965-09-03 18:00:00 TS 24.9105 76.9707 main 0 0 O________OP___ jtwc_io IO061965 24.9000 77.0000 -1 24.9000 77.0000 TC 25 24.9316 76.9121 1 7 295
1965243N19091 1965 86 NI AS NOT_NAMED 1965-09-03 21:00:00 TS 25.0808 76.6299 main 0 0 P________PP___ IO061965 25.0700 76.6626 -1 25.0700 76.6626 TC 25 25.1025 76.5645 1 7 306
1965243N19091 1965 86 NI AS NOT_NAMED 1965-09-04 00:00:00 TS 25.3074 76.3698 main 0 0 O________OP___ jtwc_io IO061965 25.3000 76.4000 -1 25.3000 76.4000 TC 25 25.3221 76.3095 1 6 323
1965243N19091 1965 86 NI AS NOT_NAMED 1965-09-04 03:00:00 TS 25.5799 76.2119 main 0 0 P________PO___ IO061965 25.5699 76.2178 -1 25.5699 76.2178 TC 25 25.6000 76.2000 1 6 348
1965243N19091 1965 86 NI AS NOT_NAMED 1965-09-04 06:00:00 TS 25.9166 76.2290 main 0 0 O________OP___ jtwc_io IO061965 25.9000 76.2000 -1 25.9000 76.2000 TC 25 25.9414 76.2725 1 8 16
1965243N19091 1965 86 NI AS NOT_NAMED 1965-09-04 09:00:00 TS 26.3059 76.4349 main 0 0 P________PP___ IO061965 26.2853 76.3893 -1 26.2853 76.3893 TC 25 26.3335 76.4958 1 9 30
1965243N19091 1965 86 NI AS NOT_NAMED 1965-09-04 12:00:00 TS 26.7294 76.7607 main 0 0 O________OP___ jtwc_io IO061965 26.7000 76.7000 -1 26.7000 76.7000 TC 25 26.7589 76.8214 1 11 37
1965243N19091 1965 86 NI AS NOT_NAMED 1965-09-04 15:00:00 NR 27.2000 77.2000 main 0 __________O___ IO061965 -1 TC 27.2000 77.2000 1 12 40

IBTrACS Databaseについて

本データベースは、米国NOAAが公開する1842年以降の世界の熱帯低気圧のベストトラックデータアーカイブInternational Best Track Archive for Climate Stewardship (IBTrACS)を、ウェブで閲覧しやすい形式に変換したものです。

最終更新日:2021-12-03